Albion, Rhode Island
Current Conditions -  °F | °C
As of 2:35 PM on Saturday 20 Dec 2014 (Local Time) from KSFZ Reporting Station
Overcast Overcast  
Wind Chill: -3°   Ceiling: 1700
Heat Index:   Visibility: 10mi
Dew Point: -7°   Wind: 8mph
Humidity: 56%   Direction: 10°N
Pressure: 30.23"   Gusts: NA
Location:  41.95°N, 71.45°W
Report Text: KSFZ 201935Z 01007KT 10SM OVC017 01/M07 A3023 RMK AO1
Loading
Personal Weather Stations






























Interactive Weather Map New forecast layout! Learn more

10-Day Weather Forecast

Advertisements
Track Severe Weather on mobile